createdAt,value
2023-01-20T00:00:32.412Z,89.12
2023-01-20T00:02:59.953Z,89.62
2023-01-20T00:05:28.797Z,89.74
2023-01-20T00:07:56.267Z,90.55
2023-01-20T00:10:23.760Z,92.35
2023-01-20T00:12:51.233Z,92.87
2023-01-20T00:15:18.727Z,91.69
2023-01-20T00:17:46.234Z,96.49
2023-01-20T00:20:13.975Z,96.01
2023-01-20T00:22:42.828Z,93.48
2023-01-20T00:25:11.786Z,90.36
2023-01-20T00:27:39.665Z,89.18
2023-01-20T00:30:08.633Z,90.73
2023-01-20T00:32:39.053Z,91.59
2023-01-20T00:35:07.738Z,100.00
2023-01-20T00:37:35.224Z,100.00
2023-01-20T00:40:04.497Z,100.00
2023-01-20T00:42:32.029Z,95.52
2023-01-20T00:44:59.780Z,89.65
2023-01-20T00:47:27.248Z,90.08
2023-01-20T00:49:54.792Z,89.24
2023-01-20T00:52:22.507Z,86.36
2023-01-20T00:54:50.008Z,84.61
2023-01-20T00:57:18.860Z,84.95
2023-01-20T00:59:46.351Z,86.77
2023-01-20T01:02:13.955Z,85.53
2023-01-20T01:04:41.677Z,84.51
2023-01-20T01:07:09.181Z,83.63
2023-01-20T01:09:36.694Z,82.84
2023-01-20T01:12:04.429Z,82.62
2023-01-20T01:14:33.554Z,82.83
2023-01-20T01:17:01.067Z,82.52
2023-01-20T01:19:28.539Z,83.14
2023-01-20T01:21:56.026Z,87.37
2023-01-20T01:24:23.528Z,100.00
2023-01-20T01:26:51.010Z,100.00
2023-01-20T01:29:18.530Z,100.00
2023-01-20T01:31:47.357Z,100.00
2023-01-20T01:34:15.205Z,100.00
2023-01-20T01:36:42.979Z,100.00
2023-01-20T01:39:10.560Z,100.00
2023-01-20T01:41:38.116Z,100.00
2023-01-20T01:44:09.286Z,100.00
2023-01-20T01:46:37.208Z,100.00
2023-01-20T01:49:11.190Z,99.77
2023-01-20T01:51:42.299Z,92.84
2023-01-20T01:54:15.831Z,90.67
2023-01-20T01:56:45.530Z,90.22
2023-01-20T01:59:16.080Z,88.58
2023-01-20T02:01:49.383Z,88.83
2023-01-20T02:04:21.972Z,88.35
2023-01-20T02:06:52.511Z,87.73
2023-01-20T02:09:20.161Z,87.45
2023-01-20T02:11:52.167Z,88.24
2023-01-20T02:14:22.641Z,89.92
2023-01-20T02:17:00.040Z,95.51
2023-01-20T02:20:02.902Z,94.47
2023-01-20T02:22:41.563Z,95.94
2023-01-20T02:25:45.129Z,99.27
2023-01-20T02:28:52.700Z,100.00
2023-01-20T02:32:09.923Z,97.94
2023-01-20T02:34:45.232Z,93.89
2023-01-20T02:37:16.452Z,92.35
2023-01-20T02:39:52.223Z,91.58
2023-01-20T02:42:25.417Z,92.42
2023-01-20T02:44:57.274Z,93.00
2023-01-20T02:47:30.946Z,93.20
2023-01-20T02:50:07.727Z,92.77
2023-01-20T02:52:39.425Z,93.65
2023-01-20T02:55:10.403Z,93.56
2023-01-20T02:57:47.719Z,94.76
2023-01-20T03:00:18.974Z,94.61
2023-01-20T03:02:51.582Z,94.42
2023-01-20T03:05:23.691Z,94.55
2023-01-20T03:07:54.245Z,97.11
2023-01-20T03:10:25.656Z,95.93
2023-01-20T03:12:57.675Z,97.99
2023-01-20T03:15:30.870Z,99.97
2023-01-20T03:17:58.989Z,98.51
2023-01-20T03:20:27.857Z,100.00
2023-01-20T03:22:55.473Z,98.56
2023-01-20T03:25:24.045Z,97.30
2023-01-20T03:27:51.533Z,96.52
2023-01-20T03:30:19.886Z,95.83
2023-01-20T03:32:50.789Z,97.75
2023-01-20T03:35:18.942Z,97.58
2023-01-20T03:37:47.819Z,96.61
2023-01-20T03:40:16.469Z,95.47
2023-01-20T03:42:53.214Z,95.47
2023-01-20T03:45:30.584Z,94.70
2023-01-20T03:48:04.750Z,94.52
2023-01-20T03:50:38.385Z,93.59
2023-01-20T03:53:19.480Z,93.35
2023-01-20T03:55:50.875Z,92.62
2023-01-20T03:58:23.174Z,94.50
2023-01-20T04:00:52.813Z,94.94
2023-01-20T04:03:24.296Z,94.57
2023-01-20T04:05:53.007Z,94.80
2023-01-20T04:08:25.494Z,95.06
2023-01-20T04:10:55.660Z,93.82
2023-01-20T04:13:23.219Z,92.34
2023-01-20T04:15:51.163Z,90.51
2023-01-20T04:18:20.838Z,89.49
2023-01-20T04:20:51.378Z,88.62
2023-01-20T04:23:26.026Z,88.58
2023-01-20T04:25:53.532Z,88.20
2023-01-20T04:28:21.008Z,88.12
2023-01-20T04:30:49.081Z,89.07
2023-01-20T04:33:16.629Z,90.85
2023-01-20T04:35:44.142Z,90.90
2023-01-20T04:38:11.656Z,90.74
2023-01-20T04:40:40.608Z,90.15
2023-01-20T04:43:09.984Z,89.52
2023-01-20T04:45:37.488Z,88.79
2023-01-20T04:48:07.121Z,89.16
2023-01-20T04:50:34.963Z,89.89
2023-01-20T04:53:02.424Z,91.33
2023-01-20T04:55:29.900Z,93.65
2023-01-20T04:57:58.714Z,95.52
2023-01-20T05:00:26.208Z,97.03
2023-01-20T05:02:53.830Z,95.96
2023-01-20T05:05:21.364Z,95.19
2023-01-20T05:07:52.938Z,94.82
2023-01-20T05:10:20.486Z,96.56
2023-01-20T05:12:48.056Z,97.11
2023-01-20T05:15:17.402Z,94.82
2023-01-20T05:17:44.984Z,92.96
2023-01-20T05:20:12.731Z,92.26
2023-01-20T05:22:40.228Z,92.04
2023-01-20T05:25:08.569Z,91.59
2023-01-20T05:27:36.233Z,94.17
2023-01-20T05:30:03.844Z,93.27
2023-01-20T05:32:32.666Z,91.58
2023-01-20T05:35:00.373Z,90.81
2023-01-20T05:37:27.837Z,90.29
2023-01-20T05:39:55.381Z,89.78
2023-01-20T05:42:22.909Z,89.34
2023-01-20T05:44:50.400Z,89.08
2023-01-20T05:47:17.926Z,88.43
2023-01-20T05:49:46.775Z,87.87
2023-01-20T05:52:14.278Z,87.52
2023-01-20T05:54:41.736Z,87.42
2023-01-20T05:57:09.421Z,86.79
2023-01-20T05:59:36.978Z,88.13
2023-01-20T06:02:04.473Z,89.05
2023-01-20T06:04:31.972Z,88.90
2023-01-20T06:07:00.788Z,88.96
2023-01-20T06:09:28.300Z,89.14
2023-01-20T06:11:55.794Z,88.86
2023-01-20T06:14:23.300Z,88.34
2023-01-20T06:16:50.944Z,88.07
2023-01-20T06:19:18.449Z,87.49
2023-01-20T06:21:46.957Z,87.44
2023-01-20T06:24:16.248Z,88.07
2023-01-20T06:26:43.733Z,88.23
2023-01-20T06:29:11.269Z,88.33
2023-01-20T06:31:38.852Z,88.81
2023-01-20T06:34:06.388Z,88.83
2023-01-20T06:36:33.859Z,88.85
2023-01-20T06:39:01.389Z,89.12
2023-01-20T06:41:30.305Z,89.16
2023-01-20T06:43:58.039Z,89.12
2023-01-20T06:46:25.934Z,89.00
2023-01-20T06:49:00.031Z,89.60
2023-01-20T06:51:29.566Z,90.15
2023-01-20T06:53:57.838Z,90.54
2023-01-20T06:56:25.685Z,91.97
2023-01-20T06:58:54.502Z,93.16
2023-01-20T07:01:25.042Z,94.03
2023-01-20T07:03:53.187Z,95.34
2023-01-20T07:06:26.861Z,96.72
2023-01-20T07:08:54.642Z,97.44
2023-01-20T07:11:22.164Z,96.95
2023-01-20T07:13:49.657Z,96.88
2023-01-20T07:16:18.528Z,97.28
2023-01-20T07:18:49.190Z,98.63
2023-01-20T07:21:16.880Z,98.36
2023-01-20T07:23:44.635Z,99.81
2023-01-20T07:26:14.423Z,100.00
2023-01-20T07:28:41.999Z,100.00
2023-01-20T07:31:11.051Z,100.00
2023-01-20T07:33:40.021Z,100.00
2023-01-20T07:36:08.858Z,100.00
2023-01-20T07:38:36.699Z,100.00
2023-01-20T07:41:06.125Z,100.00
2023-01-20T07:43:34.072Z,100.00
2023-01-20T07:46:03.612Z,100.00
2023-01-20T07:48:33.081Z,100.00
2023-01-20T07:51:05.591Z,100.00
2023-01-20T07:53:35.251Z,100.00
2023-01-20T07:56:03.939Z,99.11
2023-01-20T07:58:31.747Z,99.14
2023-01-20T08:01:06.550Z,98.41
2023-01-20T08:03:34.065Z,97.33
2023-01-20T08:06:04.521Z,97.04
2023-01-20T08:08:32.627Z,98.12
2023-01-20T08:11:01.317Z,95.22
2023-01-20T08:13:29.188Z,92.76
2023-01-20T08:16:00.496Z,92.89
2023-01-20T08:18:28.089Z,90.10
2023-01-20T08:20:55.664Z,88.03
2023-01-20T08:23:24.526Z,84.68
2023-01-20T08:25:59.755Z,83.78
2023-01-20T08:28:27.886Z,85.49
2023-01-20T08:30:55.548Z,85.78
2023-01-20T08:33:23.092Z,84.21
2023-01-20T08:35:50.617Z,83.71
2023-01-20T08:38:18.107Z,82.44
2023-01-20T08:40:46.905Z,81.57
2023-01-20T08:43:15.823Z,81.75
2023-01-20T08:45:44.543Z,81.51
2023-01-20T08:48:12.032Z,81.40
2023-01-20T08:50:39.585Z,82.29
2023-01-20T08:53:07.083Z,81.03
2023-01-20T08:55:34.561Z,82.03
2023-01-20T08:58:03.421Z,82.23
2023-01-20T09:00:31.088Z,82.13
2023-01-20T09:02:58.589Z,82.94
2023-01-20T09:05:27.143Z,83.56
2023-01-20T09:07:54.637Z,83.54
2023-01-20T09:10:22.202Z,84.14
2023-01-20T09:12:49.732Z,82.27
2023-01-20T09:15:20.503Z,81.17
2023-01-20T09:17:48.043Z,80.13
2023-01-20T09:20:16.103Z,85.77
2023-01-20T09:22:43.611Z,83.14
2023-01-20T09:25:11.523Z,82.48
2023-01-20T09:27:38.993Z,81.16
2023-01-20T09:30:07.415Z,78.90
2023-01-20T09:32:36.228Z,77.71
2023-01-20T09:35:03.734Z,81.08
2023-01-20T09:37:48.796Z,80.62
2023-01-20T09:40:37.164Z,79.90
2023-01-20T09:43:26.482Z,81.84
2023-01-20T09:45:57.555Z,81.86
2023-01-20T09:48:51.413Z,84.55
2023-01-20T09:51:48.413Z,85.97
2023-01-20T09:54:21.479Z,89.29
2023-01-20T09:56:53.422Z,85.05
2023-01-20T09:59:25.868Z,85.85
2023-01-20T10:01:57.857Z,85.55
2023-01-20T10:04:33.821Z,86.28
2023-01-20T10:07:08.031Z,86.13
2023-01-20T10:09:42.066Z,88.28
2023-01-20T10:12:13.795Z,89.54
2023-01-20T10:14:45.799Z,93.19
2023-01-20T10:17:17.473Z,93.77
2023-01-20T10:19:50.913Z,90.76
2023-01-20T10:22:23.321Z,95.43
2023-01-20T10:24:56.391Z,96.99
2023-01-20T10:27:27.516Z,100.00
2023-01-20T10:30:00.136Z,100.00
2023-01-20T10:32:33.938Z,100.00
2023-01-20T10:35:10.805Z,100.00
2023-01-20T10:37:38.889Z,100.00
2023-01-20T10:40:16.660Z,100.00
2023-01-20T10:42:48.496Z,100.00
2023-01-20T10:45:26.402Z,100.00
2023-01-20T10:48:07.076Z,100.00
2023-01-20T10:50:57.061Z,100.00
2023-01-20T10:53:46.798Z,100.00
2023-01-20T10:56:32.865Z,100.00
2023-01-20T10:59:04.226Z,100.00
2023-01-20T11:01:31.786Z,96.51
2023-01-20T11:03:59.305Z,99.55
2023-01-20T11:06:28.491Z,100.00
2023-01-20T11:08:57.557Z,100.00
2023-01-20T11:11:26.733Z,100.00
2023-01-20T11:13:54.979Z,100.00
2023-01-20T11:16:25.175Z,100.00
2023-01-20T11:18:58.655Z,100.00
2023-01-20T11:21:29.756Z,100.00
2023-01-20T11:23:58.515Z,100.00
2023-01-20T11:26:28.805Z,100.00
2023-01-20T11:28:58.813Z,100.00
2023-01-20T11:31:37.858Z,100.00
2023-01-20T11:34:20.930Z,100.00
2023-01-20T11:36:50.121Z,100.00
2023-01-20T11:39:30.146Z,100.00
2023-01-20T11:42:13.142Z,100.00
2023-01-20T11:44:44.233Z,100.00
2023-01-20T11:47:23.467Z,100.00
2023-01-20T11:50:20.749Z,100.00
2023-01-20T11:52:49.549Z,100.00
2023-01-20T11:55:19.164Z,100.00
2023-01-20T11:57:52.024Z,100.00
2023-01-20T12:00:41.628Z,100.00
2023-01-20T12:03:32.158Z,100.00
2023-01-20T12:06:04.410Z,100.00
2023-01-20T12:08:42.146Z,100.00
2023-01-20T12:11:12.684Z,100.00
2023-01-20T12:13:59.532Z,100.00
2023-01-20T12:16:31.673Z,100.00
2023-01-20T12:19:04.687Z,100.00
2023-01-20T12:21:37.659Z,100.00
2023-01-20T12:24:19.531Z,100.00
2023-01-20T12:26:47.265Z,100.00
2023-01-20T12:29:20.387Z,100.00
2023-01-20T12:31:49.263Z,100.00
2023-01-20T12:34:21.202Z,100.00
2023-01-20T12:37:10.420Z,100.00
2023-01-20T12:40:04.308Z,100.00
2023-01-20T12:43:01.454Z,100.00
2023-01-20T12:45:46.031Z,100.00
2023-01-20T12:48:26.650Z,100.00
2023-01-20T12:51:06.561Z,100.00
2023-01-20T12:53:45.267Z,100.00
2023-01-20T12:56:25.812Z,100.00
2023-01-20T12:59:02.009Z,100.00
2023-01-20T13:01:41.005Z,100.00
2023-01-20T13:04:49.832Z,100.00
2023-01-20T13:07:31.726Z,100.00
2023-01-20T13:10:17.646Z,100.00
2023-01-20T13:12:52.880Z,100.00
2023-01-20T13:15:27.793Z,100.00
2023-01-20T13:18:14.902Z,100.00
2023-01-20T13:20:45.480Z,100.00
2023-01-20T13:23:16.209Z,100.00
2023-01-20T13:25:46.454Z,100.00
2023-01-20T13:28:19.257Z,100.00
2023-01-20T13:30:50.857Z,100.00
2023-01-20T13:33:31.396Z,100.00
2023-01-20T13:36:00.144Z,100.00
2023-01-20T13:38:30.875Z,100.00
2023-01-20T13:41:03.119Z,100.00
2023-01-20T13:43:53.195Z,100.00
2023-01-20T13:46:46.136Z,100.00
2023-01-20T13:49:47.155Z,100.00
2023-01-20T13:52:14.751Z,100.00
2023-01-20T13:54:44.999Z,100.00
2023-01-20T13:57:38.063Z,100.00
2023-01-20T14:00:24.898Z,100.00
2023-01-20T14:02:53.119Z,100.00
2023-01-20T14:05:30.359Z,100.00
2023-01-20T14:07:58.531Z,100.00
2023-01-20T14:10:26.798Z,100.00
2023-01-20T14:12:54.309Z,100.00
2023-01-20T14:15:36.826Z,100.00
2023-01-20T14:18:05.582Z,100.00
2023-01-20T14:20:33.420Z,100.00
2023-01-20T14:23:27.061Z,100.00
2023-01-20T14:25:59.324Z,100.00
2023-01-20T14:28:26.993Z,100.00
2023-01-20T14:31:34.032Z,100.00
2023-01-20T14:34:04.868Z,100.00
2023-01-20T14:36:34.000Z,100.00
2023-01-20T14:39:04.281Z,100.00
2023-01-20T14:41:46.233Z,100.00
2023-01-20T14:44:17.724Z,100.00
2023-01-20T14:46:48.576Z,100.00
2023-01-20T14:49:18.048Z,100.00
2023-01-20T14:51:47.541Z,100.00
2023-01-20T14:54:34.877Z,100.00
2023-01-20T14:57:13.441Z,100.00
2023-01-20T14:59:40.949Z,100.00
2023-01-20T15:02:20.023Z,100.00
2023-01-20T15:04:47.596Z,100.00
2023-01-20T15:07:20.366Z,100.00
2023-01-20T15:09:54.199Z,100.00
2023-01-20T15:12:37.798Z,100.00
2023-01-20T15:15:20.072Z,100.00
2023-01-20T15:18:21.425Z,100.00
2023-01-20T15:21:00.960Z,100.00
2023-01-20T15:23:38.080Z,100.00
2023-01-20T15:26:10.479Z,100.00
2023-01-20T15:28:43.926Z,100.00
2023-01-20T15:31:14.869Z,100.00
2023-01-20T15:33:42.957Z,100.00
2023-01-20T15:36:27.405Z,100.00
2023-01-20T15:38:55.171Z,100.00
2023-01-20T15:41:22.830Z,100.00
2023-01-20T15:43:52.326Z,100.00
2023-01-20T15:46:20.202Z,100.00
2023-01-20T15:48:48.105Z,100.00
2023-01-20T15:51:17.297Z,100.00
2023-01-20T15:53:46.964Z,100.00
2023-01-20T15:56:20.398Z,100.00
2023-01-20T15:58:48.801Z,100.00
2023-01-20T16:01:18.088Z,100.00
2023-01-20T16:03:45.801Z,100.00
2023-01-20T16:06:15.582Z,100.00
2023-01-20T16:08:46.097Z,100.00
2023-01-20T16:11:15.318Z,100.00
2023-01-20T16:13:42.984Z,100.00
2023-01-20T16:16:13.339Z,100.00
2023-01-20T16:18:41.357Z,100.00
2023-01-20T16:21:10.856Z,100.00
2023-01-20T16:23:38.377Z,100.00
2023-01-20T16:26:20.429Z,100.00
2023-01-20T16:28:47.921Z,100.00
2023-01-20T16:31:15.986Z,100.00
2023-01-20T16:33:43.618Z,100.00
2023-01-20T16:36:13.046Z,100.00
2023-01-20T16:38:40.603Z,100.00
2023-01-20T16:41:14.963Z,100.00
2023-01-20T16:43:44.231Z,100.00
2023-01-20T16:46:14.566Z,100.00
2023-01-20T16:48:42.280Z,100.00
2023-01-20T16:51:13.261Z,100.00
2023-01-20T16:53:40.990Z,100.00
2023-01-20T16:56:14.022Z,100.00
2023-01-20T16:58:41.711Z,100.00
2023-01-20T17:01:12.673Z,100.00
2023-01-20T17:03:40.313Z,100.00
2023-01-20T17:06:11.907Z,100.00
2023-01-20T17:08:39.450Z,100.00
2023-01-20T17:11:06.946Z,100.00
2023-01-20T17:13:34.451Z,100.00
2023-01-20T17:16:02.797Z,100.00
2023-01-20T17:18:31.637Z,100.00
2023-01-20T17:21:04.767Z,100.00
2023-01-20T17:23:32.435Z,100.00
2023-01-20T17:26:01.980Z,100.00
2023-01-20T17:28:29.551Z,100.00
2023-01-20T17:31:02.024Z,100.00
2023-01-20T17:33:31.270Z,100.00
2023-01-20T17:36:00.698Z,100.00
2023-01-20T17:38:28.724Z,100.00
2023-01-20T17:41:00.364Z,100.00
2023-01-20T17:43:32.397Z,100.00
2023-01-20T17:46:00.135Z,100.00
2023-01-20T17:48:27.715Z,100.00
2023-01-20T17:50:59.075Z,100.00
2023-01-20T17:53:27.207Z,100.00
2023-01-20T17:56:06.647Z,100.00
2023-01-20T17:58:39.807Z,100.00
2023-01-20T18:01:12.428Z,100.00
2023-01-20T18:03:41.949Z,100.00
2023-01-20T18:06:13.340Z,100.00
2023-01-20T18:08:41.301Z,100.00
2023-01-20T18:11:10.875Z,100.00
2023-01-20T18:13:39.073Z,100.00
2023-01-20T18:16:08.066Z,100.00
2023-01-20T18:18:35.626Z,100.00
2023-01-20T18:21:12.015Z,100.00
2023-01-20T18:23:40.162Z,100.00
2023-01-20T18:26:09.134Z,100.00
2023-01-20T18:28:37.997Z,100.00
2023-01-20T18:31:08.911Z,100.00
2023-01-20T18:33:39.647Z,100.00
2023-01-20T18:36:08.806Z,100.00
2023-01-20T18:38:42.920Z,100.00
2023-01-20T18:41:10.836Z,100.00
2023-01-20T18:43:39.183Z,100.00
2023-01-20T18:46:07.635Z,100.00
2023-01-20T18:48:38.475Z,100.00
2023-01-20T18:51:06.505Z,100.00
2023-01-20T18:53:34.237Z,100.00
2023-01-20T18:56:04.163Z,100.00
2023-01-20T18:58:31.720Z,100.00
2023-01-20T19:01:04.161Z,100.00
2023-01-20T19:03:31.709Z,100.00
2023-01-20T19:06:04.956Z,100.00
2023-01-20T19:08:32.798Z,100.00
2023-01-20T19:11:01.606Z,100.00
2023-01-20T19:13:30.688Z,100.00
2023-01-20T19:15:58.786Z,100.00
2023-01-20T19:18:26.776Z,100.00
2023-01-20T19:20:54.545Z,100.00
2023-01-20T19:23:22.203Z,100.00
2023-01-20T19:26:00.583Z,100.00
2023-01-20T19:28:28.136Z,100.00
2023-01-20T19:30:57.221Z,100.00
2023-01-20T19:33:24.757Z,100.00
2023-01-20T19:35:52.264Z,100.00
2023-01-20T19:38:19.764Z,100.00
2023-01-20T19:40:47.236Z,100.00
2023-01-20T19:43:14.738Z,100.00
2023-01-20T19:45:45.844Z,100.00
2023-01-20T19:48:15.036Z,100.00
2023-01-20T19:50:42.965Z,100.00
2023-01-20T19:53:10.621Z,100.00
2023-01-20T19:55:38.091Z,100.00
2023-01-20T19:58:06.247Z,100.00
2023-01-20T20:00:33.757Z,100.00
2023-01-20T20:03:02.876Z,100.00
2023-01-20T20:05:32.682Z,100.00
2023-01-20T20:08:00.225Z,100.00
2023-01-20T20:10:27.710Z,100.00
2023-01-20T20:12:55.230Z,100.00
2023-01-20T20:15:22.725Z,100.00
2023-01-20T20:17:50.254Z,100.00
2023-01-20T20:20:18.394Z,100.00
2023-01-20T20:22:47.448Z,100.00
2023-01-20T20:25:15.014Z,100.00
2023-01-20T20:27:42.546Z,100.00
2023-01-20T20:30:11.436Z,100.00
2023-01-20T20:32:38.945Z,100.00
2023-01-20T20:35:07.228Z,100.00
2023-01-20T20:37:34.831Z,100.00
2023-01-20T20:40:04.032Z,100.00
2023-01-20T20:42:32.532Z,100.00
2023-01-20T20:45:00.027Z,100.00
2023-01-20T20:47:27.511Z,100.00
2023-01-20T20:49:54.990Z,100.00
2023-01-20T20:52:22.446Z,100.00
2023-01-20T20:54:50.545Z,100.00
2023-01-20T20:57:19.389Z,100.00
2023-01-20T20:59:58.559Z,100.00
2023-01-20T21:02:26.931Z,100.00
2023-01-20T21:04:54.958Z,100.00
2023-01-20T21:07:22.416Z,100.00
2023-01-20T21:09:49.900Z,100.00
2023-01-20T21:12:18.901Z,100.00
2023-01-20T21:14:46.412Z,100.00
2023-01-20T21:17:13.916Z,100.00
2023-01-20T21:19:41.403Z,100.00
2023-01-20T21:22:08.932Z,100.00
2023-01-20T21:24:36.400Z,100.00
2023-01-20T21:27:03.977Z,100.00
2023-01-20T21:29:32.814Z,100.00
2023-01-20T21:32:00.573Z,100.00
2023-01-20T21:34:28.050Z,100.00
2023-01-20T21:36:55.562Z,100.00
2023-01-20T21:39:23.548Z,100.00
2023-01-20T21:41:51.045Z,100.00
2023-01-20T21:44:32.841Z,100.00
2023-01-20T21:47:03.697Z,100.00
2023-01-20T21:49:48.859Z,100.00
2023-01-20T21:52:36.396Z,100.00
2023-01-20T21:55:04.713Z,100.00
2023-01-20T21:57:32.671Z,100.00
2023-01-20T22:00:00.548Z,100.00
2023-01-20T22:02:30.045Z,100.00
2023-01-20T22:04:57.633Z,100.00
2023-01-20T22:07:25.295Z,100.00
2023-01-20T22:09:52.837Z,100.00
2023-01-20T22:12:20.337Z,100.00
2023-01-20T22:14:48.016Z,100.00
2023-01-20T22:17:15.541Z,100.00
2023-01-20T22:19:44.708Z,100.00
2023-01-20T22:22:14.898Z,100.00
2023-01-20T22:24:42.805Z,100.00
2023-01-20T22:27:10.354Z,100.00
2023-01-20T22:29:37.829Z,100.00
2023-01-20T22:32:05.809Z,100.00
2023-01-20T22:34:33.397Z,100.00
2023-01-20T22:37:02.202Z,100.00
2023-01-20T22:39:29.764Z,100.00
2023-01-20T22:41:57.301Z,100.00
2023-01-20T22:44:24.942Z,100.00
2023-01-20T22:46:52.477Z,100.00
2023-01-20T22:49:20.124Z,100.00
2023-01-20T22:51:47.596Z,100.00
2023-01-20T22:54:16.408Z,100.00
2023-01-20T22:56:43.913Z,100.00
2023-01-20T22:59:13.195Z,100.00
2023-01-20T23:01:40.723Z,100.00
2023-01-20T23:04:08.222Z,100.00
2023-01-20T23:06:37.223Z,100.00
2023-01-20T23:09:07.227Z,100.00
2023-01-20T23:11:38.240Z,100.00
2023-01-20T23:14:06.424Z,100.00
2023-01-20T23:16:33.948Z,100.00
2023-01-20T23:19:01.489Z,100.00
2023-01-20T23:21:29.799Z,100.00
2023-01-20T23:23:57.289Z,100.00
2023-01-20T23:26:26.818Z,100.00
2023-01-20T23:28:56.416Z,100.00
2023-01-20T23:31:25.616Z,100.00
2023-01-20T23:33:54.463Z,100.00
2023-01-20T23:36:24.073Z,100.00
2023-01-20T23:38:53.476Z,100.00
2023-01-20T23:41:21.039Z,100.00
2023-01-20T23:43:48.762Z,100.00
2023-01-20T23:46:17.620Z,100.00
2023-01-20T23:48:46.584Z,100.00
2023-01-20T23:51:14.662Z,100.00
2023-01-20T23:53:42.230Z,100.00
2023-01-20T23:56:13.197Z,100.00
2023-01-20T23:58:40.857Z,100.00
